Time,TemperatureF,DewpointF,PressureIn,WindDirection,WindDirectionDegrees,WindSpeedMPH,WindSpeedGustMPH,Humidity,HourlyPrecipIn,Conditions,Clouds,dailyrainin,SoftwareType,DateUTC
2013-07-10 00:00:00,71.4,69.9,29.98,SW,215,0.0,0.0,95,0.03,,---,0.01,VWS V14.01,2013-07-10 04:00:00,
2013-07-10 00:01:00,71.5,70.0,29.98,SW,215,0.0,0.0,95,0.03,,---,0.01,VWS V14.01,2013-07-10 04:01:00,
2013-07-10 00:06:00,71.4,69.9,29.98,SSE,151,0.0,0.0,95,0.04,,---,0.02,VWS V14.01,2013-07-10 04:06:00,
2013-07-10 00:11:00,71.4,69.9,29.98,SSE,151,0.0,0.0,95,0.04,,---,0.02,VWS V14.01,2013-07-10 04:11:00,
2013-07-10 00:16:00,71.4,69.9,29.98,SSE,151,0.0,1.0,95,0.06,,---,0.04,VWS V14.01,2013-07-10 04:16:00,
2013-07-10 00:21:00,71.3,69.8,29.98,SE,136,0.0,0.0,95,0.06,,---,0.04,VWS V14.01,2013-07-10 04:21:00,
2013-07-10 00:26:00,71.3,69.8,29.98,SE,136,0.0,1.0,95,0.06,,---,0.04,VWS V14.01,2013-07-10 04:26:00,
2013-07-10 00:31:00,71.3,69.8,29.98,WSW,257,0.0,1.0,95,0.06,,---,0.04,VWS V14.01,2013-07-10 04:31:00,
2013-07-10 00:36:00,71.2,69.7,29.98,South,188,0.0,2.0,95,0.06,,---,0.04,VWS V14.01,2013-07-10 04:36:00,
2013-07-10 00:41:00,71.2,69.7,29.98,South,179,0.0,0.0,95,0.06,,---,0.04,VWS V14.01,2013-07-10 04:41:00,
2013-07-10 00:46:00,71.1,69.9,29.98,South,179,0.0,0.0,96,0.06,,---,0.04,VWS V14.01,2013-07-10 04:46:00,
2013-07-10 00:51:00,71.0,69.8,29.98,SSE,160,0.0,0.0,96,0.05,,---,0.04,VWS V14.01,2013-07-10 04:51:00,
2013-07-10 00:56:00,71.0,69.8,29.98,West,265,0.0,1.0,96,0.05,,---,0.04,VWS V14.01,2013-07-10 04:56:00,
2013-07-10 01:01:00,71.0,69.8,29.98,WNW,298,0.0,1.0,96,0.04,,---,0.04,VWS V14.01,2013-07-10 05:01:00,
2013-07-10 01:06:00,71.0,69.8,29.98,SE,124,0.0,1.0,96,0.03,,---,0.04,VWS V14.01,2013-07-10 05:06:00,
2013-07-10 01:11:00,70.9,69.7,29.98,SSE,155,0.0,4.0,96,0.02,,---,0.04,VWS V14.01,2013-07-10 05:11:00,
2013-07-10 01:16:00,70.8,69.6,29.98,SSE,156,0.0,2.0,96,0.01,,---,0.04,VWS V14.01,2013-07-10 05:16:00,
2013-07-10 01:21:00,70.8,69.6,29.98,South,179,0.0,4.0,96,0.00,,---,0.04,VWS V14.01,2013-07-10 05:21:00,
2013-07-10 01:26:00,70.7,69.5,29.98,ESE,116,0.0,1.0,96,0.00,,---,0.04,VWS V14.01,2013-07-10 05:26:00,
2013-07-10 01:31:00,70.7,69.5,29.97,SSE,167,0.0,3.0,96,0.00,,---,0.04,VWS V14.01,2013-07-10 05:31:00,
2013-07-10 01:36:00,70.6,69.4,29.97,SSE,157,0.0,1.0,96,0.00,,---,0.04,VWS V14.01,2013-07-10 05:36:00,
2013-07-10 01:41:00,70.6,69.4,29.97,ESE,116,0.0,1.0,96,0.00,,---,0.04,VWS V14.01,2013-07-10 05:41:00,
2013-07-10 01:46:00,70.6,69.4,29.96,SSW,194,0.0,3.0,96,0.00,,---,0.04,VWS V14.01,2013-07-10 05:46:00,
2013-07-10 01:51:00,70.5,69.3,29.96,SE,132,0.0,3.0,96,0.00,,---,0.04,VWS V14.01,2013-07-10 05:51:00,
2013-07-10 01:56:00,70.5,69.3,29.96,SW,236,0.0,1.0,96,0.00,,---,0.04,VWS V14.01,2013-07-10 05:56:00,
2013-07-10 02:01:00,70.4,69.2,29.96,SSE,161,0.0,1.0,96,0.00,,---,0.04,VWS V14.01,2013-07-10 06:01:00,
2013-07-10 02:06:00,70.4,69.5,29.96,ESE,117,0.0,2.0,97,0.00,,---,0.04,VWS V14.01,2013-07-10 06:06:00,
2013-07-10 02:11:00,70.4,69.5,29.95,SE,143,2.0,2.0,97,0.00,,---,0.04,VWS V14.01,2013-07-10 06:11:00,
2013-07-10 02:16:00,70.3,69.4,29.95,SSE,157,0.0,2.0,97,0.00,,---,0.04,VWS V14.01,2013-07-10 06:16:00,
2013-07-10 02:21:00,70.2,69.3,29.95,South,170,0.0,4.0,97,0.00,,---,0.04,VWS V14.01,2013-07-10 06:21:00,
2013-07-10 02:26:00,70.2,69.3,29.95,SSW,198,0.0,1.0,97,0.00,,---,0.04,VWS V14.01,2013-07-10 06:26:00,
2013-07-10 02:31:00,70.2,69.3,29.95,SSW,194,0.0,1.0,97,0.00,,---,0.04,VWS V14.01,2013-07-10 06:31:00,
2013-07-10 02:36:00,70.1,69.2,29.94,SSE,165,0.0,1.0,97,0.00,,---,0.04,VWS V14.01,2013-07-10 06:36:00,
2013-07-10 02:41:00,70.1,69.2,29.94,South,175,0.0,1.0,97,0.00,,---,0.04,VWS V14.01,2013-07-10 06:41:00,
2013-07-10 02:46:00,70.1,69.2,29.94,SSE,165,0.0,1.0,97,0.00,,---,0.04,VWS V14.01,2013-07-10 06:46:00,
2013-07-10 02:51:00,70.1,69.2,29.94,SE,137,0.0,1.0,97,0.00,,---,0.04,VWS V14.01,2013-07-10 06:51:00,
2013-07-10 02:56:00,70.1,69.2,29.94,SE,143,0.0,1.0,97,0.00,,---,0.04,VWS V14.01,2013-07-10 06:56:00,
2013-07-10 03:01:00,70.1,69.2,29.93,SE,143,0.0,0.0,97,0.00,,---,0.04,VWS V14.01,2013-07-10 07:01:00,
2013-07-10 03:06:00,70.0,69.1,29.93,SE,144,0.0,1.0,97,0.00,,---,0.04,VWS V14.01,2013-07-10 07:06:00,
2013-07-10 03:11:00,70.0,69.1,29.93,South,173,2.0,3.0,97,0.00,,---,0.04,VWS V14.01,2013-07-10 07:11:00,
2013-07-10 03:16:00,70.0,69.1,29.93,SSW,205,0.0,1.0,97,0.00,,---,0.04,VWS V14.01,2013-07-10 07:16:00,
2013-07-10 03:21:00,70.0,69.1,29.93,SSE,154,0.0,0.0,97,0.00,,---,0.04,VWS V14.01,2013-07-10 07:21:00,
2013-07-10 03:26:00,69.9,69.0,29.92,SSE,154,0.0,0.0,97,0.00,,---,0.04,VWS V14.01,2013-07-10 07:26:00,
2013-07-10 03:31:00,69.9,69.0,29.92,SSE,153,0.0,2.0,97,0.00,,---,0.04,VWS V14.01,2013-07-10 07:31:00,
2013-07-10 03:36:00,69.9,69.0,29.93,SSE,153,0.0,1.0,97,0.00,,---,0.04,VWS V14.01,2013-07-10 07:36:00,
2013-07-10 03:41:00,69.9,69.0,29.92,SSE,153,0.0,0.0,97,0.00,,---,0.04,VWS V14.01,2013-07-10 07:41:00,
2013-07-10 03:46:00,69.9,69.0,29.92,SSE,153,0.0,0.0,97,0.00,,---,0.04,VWS V14.01,2013-07-10 07:46:00,
2013-07-10 03:51:00,69.8,68.9,29.92,South,169,2.0,2.0,97,0.00,,---,0.04,VWS V14.01,2013-07-10 07:51:00,
2013-07-10 03:56:00,69.8,68.9,29.92,SE,130,0.0,1.0,97,0.00,,---,0.04,VWS V14.01,2013-07-10 07:56:00,
2013-07-10 04:01:00,69.8,68.9,29.92,SE,135,0.0,1.0,97,0.00,,---,0.04,VWS V14.01,2013-07-10 08:01:00,
2013-07-10 04:06:00,69.7,68.8,29.92,SE,135,0.0,0.0,97,0.00,,---,0.04,VWS V14.01,2013-07-10 08:06:00,
2013-07-10 04:11:00,69.7,68.8,29.92,SE,135,0.0,0.0,97,0.00,,---,0.04,VWS V14.01,2013-07-10 08:11:00,
2013-07-10 04:16:00,69.6,68.7,29.92,SE,135,0.0,0.0,97,0.00,,---,0.04,VWS V14.01,2013-07-10 08:16:00,
2013-07-10 04:21:00,69.6,68.7,29.92,SE,135,0.0,0.0,97,0.00,,---,0.04,VWS V14.01,2013-07-10 08:21:00,
2013-07-10 04:26:00,69.5,68.6,29.92,SE,135,0.0,0.0,97,0.00,,---,0.04,VWS V14.01,2013-07-10 08:26:00,
2013-07-10 04:31:00,69.5,68.6,29.92,SE,135,0.0,0.0,97,0.00,,---,0.04,VWS V14.01,2013-07-10 08:31:00,
2013-07-10 04:36:00,69.5,68.6,29.92,SE,135,0.0,0.0,97,0.00,,---,0.04,VWS V14.01,2013-07-10 08:36:00,
2013-07-10 04:41:00,69.4,68.5,29.92,SE,135,0.0,0.0,97,0.00,,---,0.04,VWS V14.01,2013-07-10 08:41:00,
2013-07-10 04:46:00,69.4,68.5,29.92,SE,135,0.0,0.0,97,0.00,,---,0.04,VWS V14.01,2013-07-10 08:46:00,
2013-07-10 04:51:00,69.4,68.5,29.92,SE,135,0.0,0.0,97,0.00,,---,0.04,VWS V14.01,2013-07-10 08:51:00,
2013-07-10 04:59:00,69.3,68.7,29.93,SE,135,0.0,0.0,98,0.01,,---,0.05,VWS V14.01,2013-07-10 08:59:00,
2013-07-10 05:04:00,69.3,68.7,29.93,SE,135,0.0,0.0,98,0.02,,---,0.06,VWS V14.01,2013-07-10 09:04:00,
2013-07-10 05:09:00,69.3,68.7,29.92,SE,135,0.0,0.0,98,0.03,,---,0.07,VWS V14.01,2013-07-10 09:09:00,
2013-07-10 05:14:00,69.3,68.7,29.93,SE,135,0.0,0.0,98,0.03,,---,0.07,VWS V14.01,2013-07-10 09:14:00,
2013-07-10 05:19:00,69.3,68.7,29.92,SE,135,0.0,0.0,98,0.05,,---,0.09,VWS V14.01,2013-07-10 09:19:00,
2013-07-10 05:24:00,69.3,68.7,29.92,SE,135,0.0,0.0,98,0.06,,---,0.10,VWS V14.01,2013-07-10 09:24:00,
2013-07-10 05:29:00,69.3,68.7,29.94,West,271,2.0,5.0,98,0.06,,---,0.10,VWS V14.01,2013-07-10 09:29:00,
2013-07-10 05:34:00,69.4,68.8,29.94,East,82,0.0,1.0,98,0.07,,---,0.11,VWS V14.01,2013-07-10 09:34:00,
2013-07-10 05:39:00,69.5,68.9,29.94,East,82,0.0,0.0,98,0.10,,---,0.14,VWS V14.01,2013-07-10 09:39:00,
2013-07-10 05:44:00,69.5,68.9,29.94,ESE,114,0.0,0.0,98,0.11,,---,0.15,VWS V14.01,2013-07-10 09:44:00,
2013-07-10 05:49:00,69.5,68.9,29.93,ESE,113,0.0,0.0,98,0.21,,---,0.25,VWS V14.01,2013-07-10 09:49:00,
2013-07-10 05:54:00,69.5,68.9,29.93,ESE,113,0.0,0.0,98,0.24,,---,0.28,VWS V14.01,2013-07-10 09:54:00,
2013-07-10 05:59:00,69.5,68.9,29.93,West,267,0.0,0.0,98,0.24,,---,0.29,VWS V14.01,2013-07-10 09:59:00,
2013-07-10 06:04:00,69.5,68.9,29.93,West,267,0.0,0.0,98,0.24,,---,0.29,VWS V14.01,2013-07-10 10:04:00,
2013-07-10 06:09:00,69.5,68.9,29.93,West,267,0.0,0.0,98,0.22,,---,0.29,VWS V14.01,2013-07-10 10:09:00,
2013-07-10 06:14:00,69.5,68.9,29.93,West,267,0.0,0.0,98,0.22,,---,0.29,VWS V14.01,2013-07-10 10:14:00,
2013-07-10 06:19:00,69.5,68.9,29.93,West,267,0.0,0.0,98,0.20,,---,0.29,VWS V14.01,2013-07-10 10:19:00,
2013-07-10 06:24:00,69.5,68.9,29.93,West,267,0.0,0.0,98,0.19,,---,0.29,VWS V14.01,2013-07-10 10:24:00,
2013-07-10 06:29:00,69.5,68.9,29.93,West,267,0.0,0.0,98,0.19,,---,0.29,VWS V14.01,2013-07-10 10:29:00,
2013-07-10 06:34:00,69.4,68.8,29.93,West,267,0.0,0.0,98,0.19,,---,0.29,VWS V14.01,2013-07-10 10:34:00,
2013-07-10 06:39:00,69.4,68.8,29.93,West,267,0.0,0.0,98,0.16,,---,0.29,VWS V14.01,2013-07-10 10:39:00,
2013-07-10 06:44:00,69.4,68.8,29.93,West,267,0.0,0.0,98,0.14,,---,0.29,VWS V14.01,2013-07-10 10:44:00,
2013-07-10 06:49:00,69.5,68.9,29.93,West,267,0.0,0.0,98,0.09,,---,0.30,VWS V14.01,2013-07-10 10:49:00,
2013-07-10 06:54:00,69.5,68.9,29.93,West,267,0.0,0.0,98,0.02,,---,0.30,VWS V14.01,2013-07-10 10:54:00,
2013-07-10 06:59:00,69.5,68.9,29.93,West,267,0.0,0.0,98,0.02,,---,0.31,VWS V14.01,2013-07-10 10:59:00,
2013-07-10 07:04:00,69.5,68.9,29.93,WSW,246,0.0,0.0,98,0.02,,---,0.31,VWS V14.01,2013-07-10 11:04:00,
2013-07-10 07:09:00,69.5,68.9,29.93,North,350,0.0,0.0,98,0.02,,---,0.31,VWS V14.01,2013-07-10 11:09:00,
2013-07-10 07:14:00,69.6,69.0,29.93,North,350,0.0,0.0,98,0.03,,---,0.32,VWS V14.01,2013-07-10 11:14:00,
2013-07-10 07:19:00,69.6,69.0,29.94,North,350,0.0,0.0,98,0.04,,---,0.33,VWS V14.01,2013-07-10 11:19:00,
2013-07-10 07:24:00,69.6,69.0,29.94,North,350,0.0,0.0,98,0.05,,---,0.34,VWS V14.01,2013-07-10 11:24:00,
2013-07-10 07:29:00,69.6,69.0,29.94,North,350,0.0,0.0,98,0.06,,---,0.35,VWS V14.01,2013-07-10 11:29:00,
2013-07-10 07:34:00,69.7,69.1,29.93,North,350,0.0,0.0,98,0.07,,---,0.36,VWS V14.01,2013-07-10 11:34:00,
2013-07-10 07:39:00,69.7,69.1,29.92,ENE,59,0.0,0.0,98,0.08,,---,0.37,VWS V14.01,2013-07-10 11:39:00,
2013-07-10 07:44:00,69.7,69.1,29.92,East,96,0.0,1.0,98,0.10,,---,0.39,VWS V14.01,2013-07-10 11:44:00,
2013-07-10 07:49:00,69.7,69.1,29.92,East,96,0.0,1.0,98,0.09,,---,0.39,VWS V14.01,2013-07-10 11:49:00,
2013-07-10 07:54:00,69.7,69.1,29.92,East,96,0.0,0.0,98,0.09,,---,0.39,VWS V14.01,2013-07-10 11:54:00,
2013-07-10 07:59:00,69.7,69.1,29.93,East,84,0.0,0.0,98,0.08,,---,0.39,VWS V14.01,2013-07-10 11:59:00,
2013-07-10 08:04:00,69.7,69.1,29.94,WNW,303,0.0,1.0,98,0.08,,---,0.39,VWS V14.01,2013-07-10 12:04:00,
2013-07-10 08:09:00,69.8,69.2,29.96,NNE,28,0.0,3.0,98,0.08,,---,0.39,VWS V14.01,2013-07-10 12:09:00,
2013-07-10 08:14:00,69.9,69.3,29.96,WNW,287,1.0,3.0,98,0.07,,---,0.39,VWS V14.01,2013-07-10 12:14:00,
2013-07-10 08:19:00,70.0,69.4,29.97,SSW,213,0.0,4.0,98,0.08,,---,0.41,VWS V14.01,2013-07-10 12:19:00,
2013-07-10 08:24:00,69.9,69.3,29.96,SW,224,1.0,1.0,98,0.33,,---,0.67,VWS V14.01,2013-07-10 12:24:00,
2013-07-10 08:29:00,69.7,69.1,29.98,East,85,2.0,2.0,98,0.53,,---,0.88,VWS V14.01,2013-07-10 12:29:00,
2013-07-10 08:34:00,69.4,68.8,29.94,East,92,0.0,1.0,98,0.67,,---,1.03,VWS V14.01,2013-07-10 12:34:00,
2013-07-10 08:39:00,69.1,68.5,29.94,SSW,201,0.0,0.0,98,0.67,,---,1.04,VWS V14.01,2013-07-10 12:39:00,
2013-07-10 08:44:00,68.7,68.1,29.94,SSW,201,0.0,0.0,98,0.65,,---,1.04,VWS V14.01,2013-07-10 12:44:00,
2013-07-10 08:49:00,68.5,67.9,29.94,SSW,201,0.0,0.0,98,0.65,,---,1.04,VWS V14.01,2013-07-10 12:49:00,
2013-07-10 08:54:00,68.4,67.8,29.95,SSW,201,0.0,0.0,98,0.65,,---,1.04,VWS V14.01,2013-07-10 12:54:00,
2013-07-10 08:59:00,68.3,67.7,29.94,SSW,201,0.0,0.0,98,0.65,,---,1.04,VWS V14.01,2013-07-10 12:59:00,
2013-07-10 09:04:00,68.2,67.6,29.93,SSW,201,0.0,0.0,98,0.65,,---,1.04,VWS V14.01,2013-07-10 13:04:00,
2013-07-10 09:09:00,68.2,67.6,29.93,SSW,202,0.0,0.0,98,0.65,,---,1.04,VWS V14.01,2013-07-10 13:09:00,
2013-07-10 09:14:00,68.3,67.7,29.93,SSW,202,0.0,0.0,98,0.65,,---,1.04,VWS V14.01,2013-07-10 13:14:00,
2013-07-10 09:20:00,68.3,67.7,29.93,SSW,202,0.0,0.0,98,0.65,,---,1.04,VWS V14.01,2013-07-10 13:20:00,
2013-07-10 09:25:00,68.4,67.8,29.93,SSW,201,0.0,0.0,98,0.43,,---,1.04,VWS V14.01,2013-07-10 13:25:00,
2013-07-10 09:30:00,68.6,68.0,29.93,SSW,200,0.0,0.0,98,0.22,,---,1.04,VWS V14.01,2013-07-10 13:30:00,
2013-07-10 09:35:00,68.8,68.2,29.93,SSW,200,0.0,0.0,98,0.02,,---,1.04,VWS V14.01,2013-07-10 13:35:00,
2013-07-10 09:40:00,68.9,68.3,29.93,East,97,2.0,2.0,98,0.00,,---,1.04,VWS V14.01,2013-07-10 13:40:00,
2013-07-10 09:45:00,69.0,68.4,29.92,East,97,0.0,0.0,98,0.00,,---,1.04,VWS V14.01,2013-07-10 13:45:00,
2013-07-10 09:50:00,69.2,68.9,29.92,East,97,0.0,0.0,99,0.00,,---,1.04,VWS V14.01,2013-07-10 13:50:00,
2013-07-10 09:55:00,69.5,69.2,29.91,East,97,0.0,0.0,99,0.02,,---,1.06,VWS V14.01,2013-07-10 13:55:00,
2013-07-10 10:00:00,69.7,69.4,29.92,East,97,0.0,0.0,99,0.02,,---,1.06,VWS V14.01,2013-07-10 14:00:00,
2013-07-10 10:05:00,70.0,69.7,29.94,NW,312,1.0,4.0,99,0.02,,---,1.06,VWS V14.01,2013-07-10 14:05:00,
2013-07-10 10:10:00,70.3,70.0,29.94,North,5,0.0,1.0,99,0.02,,---,1.06,VWS V14.01,2013-07-10 14:10:00,
2013-07-10 10:15:00,70.3,69.7,29.96,ESE,121,0.0,1.0,98,0.19,,---,1.23,VWS V14.01,2013-07-10 14:15:00,
2013-07-10 10:20:00,70.2,69.6,29.96,ESE,123,0.0,0.0,98,0.31,,---,1.35,VWS V14.01,2013-07-10 14:20:00,
2013-07-10 10:25:00,70.1,69.5,29.96,ESE,113,0.0,1.0,98,0.36,,---,1.40,VWS V14.01,2013-07-10 14:25:00,
2013-07-10 10:30:00,70.0,69.4,29.95,ESE,119,3.0,3.0,98,0.48,,---,1.52,VWS V14.01,2013-07-10 14:30:00,
2013-07-10 10:35:00,69.8,69.2,29.96,SE,130,0.0,0.0,98,0.50,,---,1.54,VWS V14.01,2013-07-10 14:35:00,
2013-07-10 10:40:00,69.7,69.1,29.95,SSE,159,2.0,3.0,98,0.50,,---,1.54,VWS V14.01,2013-07-10 14:40:00,
2013-07-10 10:45:00,69.6,69.0,29.93,ESE,121,0.0,1.0,98,0.51,,---,1.55,VWS V14.01,2013-07-10 14:45:00,
2013-07-10 10:50:00,69.5,68.9,29.94,East,92,0.0,1.0,98,0.53,,---,1.57,VWS V14.01,2013-07-10 14:50:00,
2013-07-10 10:55:00,69.5,68.9,29.93,SSW,195,0.0,0.0,98,0.51,,---,1.57,VWS V14.01,2013-07-10 14:55:00,
2013-07-10 11:00:00,69.5,69.2,29.93,SSW,195,0.0,0.0,99,0.51,,---,1.57,VWS V14.01,2013-07-10 15:00:00,
2013-07-10 11:05:00,69.6,69.3,29.93,SSW,194,0.0,1.0,99,0.51,,---,1.57,VWS V14.01,2013-07-10 15:05:00,
2013-07-10 11:10:00,69.8,69.5,29.92,SE,130,0.0,1.0,99,0.51,,---,1.57,VWS V14.01,2013-07-10 15:10:00,
2013-07-10 11:15:00,70.1,69.8,29.92,ENE,60,0.0,0.0,99,0.42,,---,1.57,VWS V14.01,2013-07-10 15:15:00,
2013-07-10 11:20:00,70.5,70.2,29.92,East,88,0.0,0.0,99,0.26,,---,1.57,VWS V14.01,2013-07-10 15:20:00,
2013-07-10 11:25:00,71.1,70.8,29.92,East,88,0.0,0.0,99,0.20,,---,1.57,VWS V14.01,2013-07-10 15:25:00,
2013-07-10 11:30:00,71.5,71.2,29.92,East,91,1.0,1.0,99,0.08,,---,1.57,VWS V14.01,2013-07-10 15:30:00,
2013-07-10 11:35:00,71.9,71.6,29.91,East,88,2.0,3.0,99,0.04,,---,1.57,VWS V14.01,2013-07-10 15:35:00,
2013-07-10 11:40:00,72.5,72.5,29.91,ESE,104,3.0,3.0,100,0.03,,---,1.57,VWS V14.01,2013-07-10 15:40:00,
2013-07-10 11:45:00,73.1,73.1,29.90,SE,127,0.0,1.0,100,0.03,,---,1.57,VWS V14.01,2013-07-10 15:45:00,
2013-07-10 11:50:00,73.5,73.5,29.91,ESE,115,1.0,1.0,100,0.01,,---,1.57,VWS V14.01,2013-07-10 15:50:00,
2013-07-10 11:55:00,73.7,73.4,29.91,South,190,0.0,1.0,99,0.00,,---,1.57,VWS V14.01,2013-07-10 15:55:00,
2013-07-10 12:00:00,73.9,73.6,29.91,South,181,0.0,1.0,99,0.00,,---,1.57,VWS V14.01,2013-07-10 16:00:00,
2013-07-10 12:05:00,74.4,74.4,29.91,SE,140,0.0,4.0,100,0.00,,---,1.57,VWS V14.01,2013-07-10 16:05:00,
2013-07-10 12:10:00,75.0,75.0,29.91,ESE,118,0.0,3.0,100,0.00,,---,1.57,VWS V14.01,2013-07-10 16:10:00,
2013-07-10 12:15:00,75.6,75.6,29.90,NE,52,0.0,1.0,100,0.00,,---,1.57,VWS V14.01,2013-07-10 16:15:00,
2013-07-10 12:20:00,76.1,76.1,29.90,NE,53,4.0,4.0,100,0.00,,---,1.57,VWS V14.01,2013-07-10 16:20:00,
2013-07-10 12:25:00,76.3,76.3,29.90,SSE,157,0.0,2.0,100,0.00,,---,1.57,VWS V14.01,2013-07-10 16:25:00,
2013-07-10 12:30:00,76.1,75.8,29.90,South,178,1.0,1.0,99,0.00,,---,1.57,VWS V14.01,2013-07-10 16:30:00,
2013-07-10 12:35:00,75.9,75.6,29.90,South,191,2.0,4.0,99,0.00,,---,1.57,VWS V14.01,2013-07-10 16:35:00,
2013-07-10 12:40:00,75.7,75.4,29.89,SSE,159,1.0,4.0,99,0.00,,---,1.57,VWS V14.01,2013-07-10 16:40:00,
2013-07-10 12:45:00,75.5,75.2,29.90,ENE,68,0.0,1.0,99,0.00,,---,1.57,VWS V14.01,2013-07-10 16:45:00,
2013-07-10 12:50:00,75.6,75.3,29.89,WSW,246,0.0,3.0,99,0.00,,---,1.57,VWS V14.01,2013-07-10 16:50:00,
2013-07-10 12:55:00,75.6,75.3,29.89,East,95,1.0,3.0,99,0.00,,---,1.57,VWS V14.01,2013-07-10 16:55:00,
2013-07-10 13:00:00,75.9,75.9,29.88,ESE,112,2.0,2.0,100,0.00,,---,1.57,VWS V14.01,2013-07-10 17:00:00,
2013-07-10 13:05:00,75.8,75.5,29.88,ENE,71,1.0,4.0,99,0.00,,---,1.57,VWS V14.01,2013-07-10 17:05:00,
2013-07-10 13:10:00,76.0,75.7,29.88,South,184,0.0,1.0,99,0.00,,---,1.57,VWS V14.01,2013-07-10 17:10:00,
2013-07-10 13:15:00,76.3,76.0,29.88,SW,222,0.0,2.0,99,0.00,,---,1.57,VWS V14.01,2013-07-10 17:15:00,
2013-07-10 13:20:00,76.7,76.7,29.88,SE,138,1.0,1.0,100,0.00,,---,1.57,VWS V14.01,2013-07-10 17:20:00,
2013-07-10 13:25:00,77.3,77.3,29.88,North,5,0.0,2.0,100,0.00,,---,1.57,VWS V14.01,2013-07-10 17:25:00,
2013-07-10 13:30:00,77.8,77.8,29.87,North,360,0.0,1.0,100,0.00,,---,1.57,VWS V14.01,2013-07-10 17:30:00,
2013-07-10 13:36:00,78.2,78.2,29.87,NNE,17,2.0,2.0,100,0.00,,---,1.57,VWS V14.01,2013-07-10 17:36:00,
2013-07-10 13:41:00,78.9,78.9,29.87,ENE,69,0.0,1.0,100,0.00,,---,1.57,VWS V14.01,2013-07-10 17:41:00,
2013-07-10 13:46:00,79.3,79.3,29.86,South,183,0.0,2.0,100,0.00,,---,1.57,VWS V14.01,2013-07-10 17:46:00,
2013-07-10 13:51:00,79.4,79.1,29.86,South,178,0.0,0.0,99,0.00,,---,1.57,VWS V14.01,2013-07-10 17:51:00,
2013-07-10 13:56:00,79.3,79.0,29.86,South,179,0.0,0.0,99,0.00,,---,1.57,VWS V14.01,2013-07-10 17:56:00,
2013-07-10 14:01:00,79.4,79.1,29.85,SE,142,0.0,0.0,99,0.00,,---,1.57,VWS V14.01,2013-07-10 18:01:00,
2013-07-10 14:06:00,79.9,79.6,29.86,SE,143,0.0,0.0,99,0.00,,---,1.57,VWS V14.01,2013-07-10 18:06:00,
2013-07-10 14:11:00,80.2,79.9,29.85,SE,128,0.0,1.0,99,0.00,,---,1.57,VWS V14.01,2013-07-10 18:11:00,
2013-07-10 14:16:00,80.7,80.4,29.85,SSE,163,2.0,3.0,99,0.00,,---,1.57,VWS V14.01,2013-07-10 18:16:00,
2013-07-10 14:21:00,80.3,79.7,29.85,SE,142,0.0,4.0,98,0.00,,---,1.57,VWS V14.01,2013-07-10 18:21:00,
2013-07-10 14:26:00,80.2,79.9,29.85,SSE,150,0.0,0.0,99,0.00,,---,1.57,VWS V14.01,2013-07-10 18:26:00,
2013-07-10 14:31:00,80.2,79.6,29.85,NNW,338,0.0,0.0,98,0.02,,---,1.59,VWS V14.01,2013-07-10 18:31:00,
2013-07-10 14:36:00,80.3,79.7,29.84,SE,144,0.0,2.0,98,0.04,,---,1.61,VWS V14.01,2013-07-10 18:36:00,
2013-07-10 14:41:00,80.7,80.4,29.84,SE,145,0.0,0.0,99,0.04,,---,1.61,VWS V14.01,2013-07-10 18:41:00,
2013-07-10 14:46:00,81.1,80.8,29.83,SE,145,0.0,0.0,99,0.04,,---,1.61,VWS V14.01,2013-07-10 18:46:00,
2013-07-10 14:51:00,81.5,81.2,29.82,SE,145,0.0,0.0,99,0.04,,---,1.61,VWS V14.01,2013-07-10 18:51:00,
2013-07-10 14:56:00,82.0,81.7,29.82,SE,145,0.0,0.0,99,0.04,,---,1.61,VWS V14.01,2013-07-10 18:56:00,
2013-07-10 15:01:00,82.3,82.0,29.82,SSE,148,0.0,1.0,99,0.04,,---,1.61,VWS V14.01,2013-07-10 19:01:00,
2013-07-10 15:06:00,82.6,82.3,29.81,ENE,68,0.0,0.0,99,0.04,,---,1.61,VWS V14.01,2013-07-10 19:06:00,
2013-07-10 15:11:00,83.1,82.8,29.81,SSE,161,1.0,3.0,99,0.04,,---,1.61,VWS V14.01,2013-07-10 19:11:00,
2013-07-10 15:16:00,83.1,82.5,29.80,South,188,0.0,0.0,98,0.04,,---,1.61,VWS V14.01,2013-07-10 19:16:00,
2013-07-10 15:21:00,82.8,81.9,29.80,ESE,114,0.0,1.0,97,0.04,,---,1.61,VWS V14.01,2013-07-10 19:21:00,
2013-07-10 15:26:00,82.7,81.8,29.79,South,172,1.0,3.0,97,0.04,,---,1.61,VWS V14.01,2013-07-10 19:26:00,
2013-07-10 15:31:00,82.5,81.6,29.79,East,96,1.0,1.0,97,0.03,,---,1.61,VWS V14.01,2013-07-10 19:31:00,
2013-07-10 15:36:00,82.5,81.6,29.79,ESE,103,1.0,1.0,97,0.00,,---,1.61,VWS V14.01,2013-07-10 19:36:00,
2013-07-10 15:41:00,82.5,81.6,29.78,SSW,192,0.0,0.0,97,0.00,,---,1.61,VWS V14.01,2013-07-10 19:41:00,
2013-07-10 15:46:00,82.6,81.7,29.79,SSE,161,1.0,2.0,97,0.00,,---,1.61,VWS V14.01,2013-07-10 19:46:00,
2013-07-10 15:51:00,83.0,82.1,29.79,SE,126,0.0,2.0,97,0.00,,---,1.61,VWS V14.01,2013-07-10 19:51:00,
2013-07-10 15:56:00,82.8,81.2,29.79,ESE,115,0.0,6.0,95,0.00,,---,1.61,VWS V14.01,2013-07-10 19:56:00,
2013-07-10 16:01:00,82.8,81.2,29.79,SSE,165,0.0,4.0,95,0.00,,---,1.61,VWS V14.01,2013-07-10 20:01:00,
2013-07-10 16:06:00,82.8,81.2,29.79,SSW,201,0.0,4.0,95,0.00,,---,1.61,VWS V14.01,2013-07-10 20:06:00,
2013-07-10 16:11:00,82.7,80.5,29.79,South,184,2.0,4.0,93,0.00,,---,1.61,VWS V14.01,2013-07-10 20:11:00,
2013-07-10 16:16:00,82.5,79.9,29.79,South,182,1.0,2.0,92,0.00,,---,1.61,VWS V14.01,2013-07-10 20:16:00,
2013-07-10 16:21:00,82.5,79.6,29.79,SSE,163,1.0,6.0,91,0.00,,---,1.61,VWS V14.01,2013-07-10 20:21:00,
2013-07-10 16:26:00,82.5,79.6,29.78,SSE,167,0.0,3.0,91,0.00,,---,1.61,VWS V14.01,2013-07-10 20:26:00,
2013-07-10 16:31:00,82.6,79.7,29.78,SE,146,0.0,1.0,91,0.00,,---,1.61,VWS V14.01,2013-07-10 20:31:00,
2013-07-10 16:36:00,82.8,79.9,29.78,South,171,0.0,3.0,91,0.00,,---,1.61,VWS V14.01,2013-07-10 20:36:00,
2013-07-10 16:41:00,82.9,80.0,29.79,South,170,0.0,0.0,91,0.00,,---,1.61,VWS V14.01,2013-07-10 20:41:00,
2013-07-10 16:46:00,83.1,80.2,29.78,SSE,149,0.0,2.0,91,0.00,,---,1.61,VWS V14.01,2013-07-10 20:46:00,
2013-07-10 16:51:00,83.1,80.2,29.78,SE,139,0.0,2.0,91,0.00,,---,1.61,VWS V14.01,2013-07-10 20:51:00,
2013-07-10 16:56:00,83.2,80.3,29.78,SSW,193,0.0,1.0,91,0.00,,---,1.61,VWS V14.01,2013-07-10 20:56:00,
2013-07-10 17:01:00,83.1,79.9,29.78,SSE,163,0.0,2.0,90,0.00,,---,1.61,VWS V14.01,2013-07-10 21:01:00,
2013-07-10 17:06:00,83.1,79.5,29.78,SSE,157,0.0,0.0,89,0.00,,---,1.61,VWS V14.01,2013-07-10 21:06:00,
2013-07-10 17:11:00,83.2,80.0,29.79,SE,142,0.0,1.0,90,0.00,,---,1.61,VWS V14.01,2013-07-10 21:11:00,
2013-07-10 17:16:00,83.1,79.5,29.79,SE,128,3.0,3.0,89,0.00,,---,1.61,VWS V14.01,2013-07-10 21:16:00,
2013-07-10 17:21:00,83.0,79.1,29.80,SSE,156,0.0,0.0,88,0.00,,---,1.61,VWS V14.01,2013-07-10 21:21:00,
2013-07-10 17:26:00,83.0,79.4,29.81,SSE,156,0.0,0.0,89,0.00,,---,1.61,VWS V14.01,2013-07-10 21:26:00,
2013-07-10 17:31:00,83.0,79.4,29.81,SSE,155,0.0,1.0,89,0.00,,---,1.61,VWS V14.01,2013-07-10 21:31:00,
2013-07-10 17:36:00,82.9,79.7,29.82,SSE,155,0.0,0.0,90,0.00,,---,1.61,VWS V14.01,2013-07-10 21:36:00,
2013-07-10 17:41:00,82.9,79.3,29.81,SSE,149,0.0,1.0,89,0.00,,---,1.61,VWS V14.01,2013-07-10 21:41:00,
2013-07-10 17:46:00,82.7,79.1,29.81,NNE,15,0.0,3.0,89,0.00,,---,1.61,VWS V14.01,2013-07-10 21:46:00,
2013-07-10 17:51:00,82.5,78.9,29.80,East,101,0.0,1.0,89,0.00,,---,1.61,VWS V14.01,2013-07-10 21:51:00,
2013-07-10 17:56:00,82.4,78.8,29.80,ESE,102,0.0,0.0,89,0.00,,---,1.61,VWS V14.01,2013-07-10 21:56:00,
2013-07-10 18:01:00,82.3,78.7,29.80,ESE,102,0.0,0.0,89,0.00,,---,1.61,VWS V14.01,2013-07-10 22:01:00,
2013-07-10 18:06:00,82.2,79.0,29.80,ESE,103,0.0,0.0,90,0.00,,---,1.61,VWS V14.01,2013-07-10 22:06:00,
2013-07-10 18:11:00,82.2,79.0,29.80,ESE,103,0.0,0.0,90,0.00,,---,1.61,VWS V14.01,2013-07-10 22:11:00,
2013-07-10 18:16:00,82.1,78.9,29.80,ESE,103,0.0,0.0,90,0.00,,---,1.61,VWS V14.01,2013-07-10 22:16:00,
2013-07-10 18:21:00,81.8,78.6,29.82,ESE,111,0.0,0.0,90,0.00,,---,1.61,VWS V14.01,2013-07-10 22:21:00,
2013-07-10 18:26:00,80.9,75.6,29.87,WNW,291,0.0,19.0,84,0.01,,---,1.62,VWS V14.01,2013-07-10 22:26:00,
2013-07-10 18:31:00,79.2,72.1,29.87,WNW,298,1.0,18.0,79,0.01,,---,1.62,VWS V14.01,2013-07-10 22:31:00,
2013-07-10 18:36:00,77.6,70.6,29.88,West,266,1.0,12.0,79,0.02,,---,1.63,VWS V14.01,2013-07-10 22:36:00,
2013-07-10 18:41:00,76.3,69.7,29.87,East,90,1.0,9.0,80,0.11,,---,1.72,VWS V14.01,2013-07-10 22:41:00,
2013-07-10 18:46:00,74.6,68.8,29.86,North,350,0.0,13.0,82,0.18,,---,1.79,VWS V14.01,2013-07-10 22:46:00,
2013-07-10 18:51:00,73.4,68.3,29.87,NE,49,1.0,5.0,84,0.20,,---,1.81,VWS V14.01,2013-07-10 22:51:00,
2013-07-10 18:56:00,72.3,67.5,29.87,WSW,251,0.0,9.0,85,0.21,,---,1.82,VWS V14.01,2013-07-10 22:56:00,
2013-07-10 19:01:00,71.3,66.9,29.87,NE,42,0.0,7.0,86,0.21,,---,1.82,VWS V14.01,2013-07-10 23:01:00,
2013-07-10 19:06:00,70.8,67.1,29.87,NNW,335,0.0,4.0,88,0.21,,---,1.82,VWS V14.01,2013-07-10 23:06:00,
2013-07-10 19:11:00,70.3,66.9,29.88,West,265,0.0,3.0,89,0.21,,---,1.82,VWS V14.01,2013-07-10 23:11:00,
2013-07-10 19:16:00,69.9,66.5,29.88,East,90,0.0,1.0,89,0.21,,---,1.82,VWS V14.01,2013-07-10 23:16:00,
2013-07-10 19:21:00,69.6,66.5,29.88,SW,236,1.0,1.0,90,0.21,,---,1.82,VWS V14.01,2013-07-10 23:21:00,
2013-07-10 19:26:00,69.3,66.2,29.89,SW,236,0.0,0.0,90,0.22,,---,1.83,VWS V14.01,2013-07-10 23:26:00,
2013-07-10 19:31:00,69.1,66.4,29.88,SW,236,0.0,0.0,91,0.21,,---,1.83,VWS V14.01,2013-07-10 23:31:00,
2013-07-10 19:36:00,69.0,66.3,29.88,SW,236,0.0,0.0,91,0.21,,---,1.83,VWS V14.01,2013-07-10 23:36:00,
2013-07-10 19:41:00,68.8,66.1,29.89,SW,236,0.0,0.0,91,0.19,,---,1.84,VWS V14.01,2013-07-10 23:41:00,
2013-07-10 19:46:00,68.7,66.3,29.89,SW,236,0.0,0.0,92,0.09,,---,1.85,VWS V14.01,2013-07-10 23:46:00,
2013-07-10 19:51:00,68.5,66.1,29.88,SW,236,0.0,0.0,92,0.05,,---,1.86,VWS V14.01,2013-07-10 23:51:00,
2013-07-10 19:56:00,68.4,66.0,29.89,SW,236,0.0,0.0,92,0.05,,---,1.87,VWS V14.01,2013-07-10 23:56:00,
2013-07-10 20:01:00,68.3,65.9,29.89,SW,236,0.0,0.0,92,0.06,,---,1.88,VWS V14.01,2013-07-11 00:01:00,
2013-07-10 20:06:00,68.2,66.1,29.90,SW,236,0.0,0.0,93,0.07,,---,1.89,VWS V14.01,2013-07-11 00:06:00,
2013-07-10 20:11:00,68.1,66.0,29.89,SW,236,0.0,0.0,93,0.08,,---,1.90,VWS V14.01,2013-07-11 00:11:00,
2013-07-10 20:16:00,68.0,65.9,29.89,SW,236,0.0,0.0,93,0.09,,---,1.91,VWS V14.01,2013-07-11 00:16:00,
2013-07-10 20:21:00,67.9,65.8,29.89,SW,236,0.0,0.0,93,0.11,,---,1.93,VWS V14.01,2013-07-11 00:21:00,
2013-07-10 20:26:00,67.8,65.7,29.88,East,96,0.0,1.0,93,0.12,,---,1.95,VWS V14.01,2013-07-11 00:26:00,
2013-07-10 20:31:00,67.7,65.6,29.88,SE,134,0.0,1.0,93,0.13,,---,1.96,VWS V14.01,2013-07-11 00:31:00,
2013-07-10 20:36:00,67.6,65.8,29.88,SSE,148,0.0,1.0,94,0.15,,---,1.98,VWS V14.01,2013-07-11 00:36:00,
2013-07-10 20:41:00,67.5,65.7,29.87,ESE,118,0.0,1.0,94,0.15,,---,1.99,VWS V14.01,2013-07-11 00:41:00,
2013-07-10 20:46:00,67.4,65.6,29.87,ESE,120,3.0,4.0,94,0.15,,---,2.00,VWS V14.01,2013-07-11 00:46:00,
2013-07-10 20:51:00,67.3,65.5,29.87,ESE,104,0.0,2.0,94,0.15,,---,2.01,VWS V14.01,2013-07-11 00:51:00,
2013-07-10 20:56:00,67.2,65.4,29.87,ESE,107,0.0,1.0,94,0.14,,---,2.01,VWS V14.01,2013-07-11 00:56:00,
2013-07-10 21:01:00,67.1,65.6,29.87,ENE,71,0.0,1.0,95,0.13,,---,2.01,VWS V14.01,2013-07-11 01:01:00,
2013-07-10 21:06:00,67.0,65.5,29.88,NNW,339,0.0,0.0,95,0.12,,---,2.01,VWS V14.01,2013-07-11 01:06:00,
2013-07-10 21:11:00,67.0,65.5,29.88,NNE,24,0.0,0.0,95,0.12,,---,2.01,VWS V14.01,2013-07-11 01:11:00,
2013-07-10 21:16:00,66.9,65.4,29.88,NNE,24,0.0,0.0,95,0.10,,---,2.01,VWS V14.01,2013-07-11 01:16:00,
2013-07-10 21:21:00,66.8,65.3,29.88,ENE,72,0.0,0.0,95,0.10,,---,2.02,VWS V14.01,2013-07-11 01:21:00,
2013-07-10 21:26:00,66.8,65.3,29.87,ENE,72,0.0,0.0,95,0.08,,---,2.02,VWS V14.01,2013-07-11 01:26:00,
2013-07-10 21:31:00,66.8,65.3,29.87,ENE,71,0.0,0.0,95,0.07,,---,2.02,VWS V14.01,2013-07-11 01:31:00,
2013-07-10 21:36:00,66.7,65.2,29.87,ENE,71,0.0,1.0,95,0.05,,---,2.02,VWS V14.01,2013-07-11 01:36:00,
2013-07-10 21:41:00,66.7,65.2,29.87,ENE,71,0.0,0.0,95,0.04,,---,2.02,VWS V14.01,2013-07-11 01:41:00,
2013-07-10 21:46:00,66.7,65.2,29.87,ENE,71,0.0,0.0,95,0.03,,---,2.02,VWS V14.01,2013-07-11 01:46:00,
2013-07-10 21:51:00,66.6,65.1,29.87,ENE,71,0.0,0.0,95,0.02,,---,2.02,VWS V14.01,2013-07-11 01:51:00,
2013-07-10 21:56:00,66.6,65.1,29.87,ENE,71,0.0,0.0,95,0.01,,---,2.02,VWS V14.01,2013-07-11 01:56:00,
2013-07-10 22:01:00,66.5,65.3,29.87,ENE,71,0.0,0.0,96,0.01,,---,2.02,VWS V14.01,2013-07-11 02:01:00,
2013-07-10 22:02:00,66.5,65.3,29.87,ENE,71,0.0,0.0,96,0.01,,---,2.02,VWS V14.01,2013-07-11 02:02:00,
2013-07-10 22:07:00,66.5,65.3,29.87,ENE,71,0.0,0.0,96,0.01,,---,2.02,VWS V14.01,2013-07-11 02:07:00,
2013-07-10 22:12:00,66.5,65.3,29.88,ENE,71,0.0,0.0,96,0.01,,---,2.02,VWS V14.01,2013-07-11 02:12:00,
2013-07-10 22:17:00,66.5,65.3,29.87,SE,128,0.0,1.0,96,0.01,,---,2.02,VWS V14.01,2013-07-11 02:17:00,
2013-07-10 22:22:00,66.5,65.3,29.87,SE,128,0.0,0.0,96,0.00,,---,2.02,VWS V14.01,2013-07-11 02:22:00,
2013-07-10 22:27:00,66.6,65.4,29.87,ESE,118,0.0,0.0,96,0.00,,---,2.02,VWS V14.01,2013-07-11 02:27:00,
2013-07-10 22:32:00,66.6,65.4,29.87,ESE,117,0.0,0.0,96,0.00,,---,2.02,VWS V14.01,2013-07-11 02:32:00,
2013-07-10 22:37:00,66.5,65.3,29.87,ESE,117,0.0,0.0,96,0.00,,---,2.02,VWS V14.01,2013-07-11 02:37:00,
2013-07-10 22:42:00,66.5,65.3,29.87,ESE,117,0.0,0.0,96,0.00,,---,2.02,VWS V14.01,2013-07-11 02:42:00,
2013-07-10 22:47:00,66.5,65.3,29.88,ESE,117,0.0,0.0,96,0.00,,---,2.02,VWS V14.01,2013-07-11 02:47:00,
2013-07-10 22:52:00,66.5,65.3,29.88,ESE,118,0.0,0.0,96,0.00,,---,2.02,VWS V14.01,2013-07-11 02:52:00,
2013-07-10 22:57:00,66.5,65.3,29.88,SW,217,0.0,0.0,96,0.00,,---,2.02,VWS V14.01,2013-07-11 02:57:00,
2013-07-10 23:02:00,66.4,65.2,29.87,SW,217,0.0,0.0,96,0.00,,---,2.02,VWS V14.01,2013-07-11 03:02:00,
2013-07-10 23:07:00,66.4,65.2,29.87,SW,217,0.0,0.0,96,0.00,,---,2.02,VWS V14.01,2013-07-11 03:07:00,
2013-07-10 23:12:00,66.3,65.1,29.87,SW,217,0.0,0.0,96,0.00,,---,2.02,VWS V14.01,2013-07-11 03:12:00,
2013-07-10 23:17:00,66.3,65.1,29.87,SW,217,0.0,0.0,96,0.00,,---,2.02,VWS V14.01,2013-07-11 03:17:00,
2013-07-10 23:22:00,66.2,65.0,29.87,SW,217,0.0,0.0,96,0.00,,---,2.02,VWS V14.01,2013-07-11 03:22:00,
2013-07-10 23:27:00,66.2,65.0,29.86,SW,217,0.0,0.0,96,0.00,,---,2.02,VWS V14.01,2013-07-11 03:27:00,
2013-07-10 23:32:00,66.1,64.9,29.86,SW,217,0.0,0.0,96,0.00,,---,2.02,VWS V14.01,2013-07-11 03:32:00,
2013-07-10 23:37:00,66.1,64.9,29.86,SW,217,0.0,0.0,96,0.00,,---,2.02,VWS V14.01,2013-07-11 03:37:00,
2013-07-10 23:42:00,66.1,64.9,29.85,SW,217,0.0,0.0,96,0.00,,---,2.02,VWS V14.01,2013-07-11 03:42:00,
2013-07-10 23:47:00,66.1,64.9,29.86,SW,217,0.0,0.0,96,0.00,,---,2.02,VWS V14.01,2013-07-11 03:47:00,
2013-07-10 23:52:00,66.0,64.8,29.85,SW,217,0.0,0.0,96,0.00,,---,2.02,VWS V14.01,2013-07-11 03:52:00,
2013-07-10 23:57:00,66.0,65.1,29.86,SW,217,0.0,0.0,97,0.00,,---,2.02,VWS V14.01,2013-07-11 03:57:00,